Terminal Aerodrome Forecast
Issued by NWS

Current Version | Previous Version | Text Only | Print | Product List | Glossary Off
Versions: 1 2 3 4 5 6 7 8 9 10 11 12 13 14 15 16 17 18 19 20 21 22 23 24 25

349
FTUS41 KPBZ 081504 AAA
TAFMGW
TAF AMD
KMGW 081504Z 0815/0912 15005KT P6SM BKN100
     FM081900 18005KT P6SM -RA OVC035
     FM082100 20005KT 3SM -RASN OVC015
     FM082300 23005KT P6SM VCSH OVC025
     FM090500 23005KT 2SM -SHSN OVC010=

USA.gov is the U.S. government's official web portal to all federal, state and local government web resources and services.